sensor_id;sensor_type;location;lat;lon;timestamp;pressure;altitude;pressure_sealevel;temperature
77728;BMP280;68312;53.502;10.030;2023-03-26T00:01:11;100409.59;;;7.98
77728;BMP280;68312;53.502;10.030;2023-03-26T00:03:42;100411.59;;;7.93
77728;BMP280;68312;53.502;10.030;2023-03-26T00:06:15;100402.22;;;7.92
77728;BMP280;68312;53.502;10.030;2023-03-26T00:08:43;100405.88;;;7.91
77728;BMP280;68312;53.502;10.030;2023-03-26T00:11:11;100420.50;;;7.92
77728;BMP280;68312;53.502;10.030;2023-03-26T00:13:40;100423.41;;;7.90
77728;BMP280;68312;53.502;10.030;2023-03-26T00:16:13;100422.50;;;7.86
77728;BMP280;68312;53.502;10.030;2023-03-26T00:18:42;100431.53;;;7.89
77728;BMP280;68312;53.502;10.030;2023-03-26T00:21:14;100432.34;;;7.89
77728;BMP280;68312;53.502;10.030;2023-03-26T00:23:44;100438.50;;;7.85
77728;BMP280;68312;53.502;10.030;2023-03-26T00:26:11;100445.41;;;7.89
77728;BMP280;68312;53.502;10.030;2023-03-26T00:28:39;100442.97;;;7.93
77728;BMP280;68312;53.502;10.030;2023-03-26T00:31:10;100441.69;;;7.82
77728;BMP280;68312;53.502;10.030;2023-03-26T00:33:39;100442.13;;;7.75
77728;BMP280;68312;53.502;10.030;2023-03-26T00:36:12;100453.75;;;7.70
77728;BMP280;68312;53.502;10.030;2023-03-26T00:38:42;100453.75;;;7.70
77728;BMP280;68312;53.502;10.030;2023-03-26T00:41:16;100460.06;;;7.69
77728;BMP280;68312;53.502;10.030;2023-03-26T00:43:51;100454.97;;;7.64
77728;BMP280;68312;53.502;10.030;2023-03-26T00:46:26;100464.63;;;7.63
77728;BMP280;68312;53.502;10.030;2023-03-26T00:48:55;100456.97;;;7.67
77728;BMP280;68312;53.502;10.030;2023-03-26T00:51:24;100464.63;;;7.63
77728;BMP280;68312;53.502;10.030;2023-03-26T00:53:51;100465.03;;;7.57
77728;BMP280;68312;53.502;10.030;2023-03-26T00:56:18;100472.97;;;7.65
77728;BMP280;68312;53.502;10.030;2023-03-26T00:58:44;100461.53;;;7.61
77728;BMP280;68312;53.502;10.030;2023-03-26T01:01:13;100460.00;;;7.60
77728;BMP280;68312;53.502;10.030;2023-03-26T01:03:44;100469.38;;;7.61
77728;BMP280;68312;53.502;10.030;2023-03-26T01:06:31;100467.63;;;7.70
77728;BMP280;68312;53.502;10.030;2023-03-26T01:09:10;100476.03;;;7.67
77728;BMP280;68312;53.502;10.030;2023-03-26T01:11:41;100482.81;;;7.68
77728;BMP280;68312;53.502;10.030;2023-03-26T01:14:15;100490.16;;;7.66
77728;BMP280;68312;53.502;10.030;2023-03-26T01:16:49;100478.50;;;7.64
77728;BMP280;68312;53.502;10.030;2023-03-26T01:22:03;100498.94;;;7.62
77728;BMP280;68312;53.502;10.030;2023-03-26T01:24:30;100499.63;;;7.54
77728;BMP280;68312;53.502;10.030;2023-03-26T01:27:03;100506.31;;;7.46
77728;BMP280;68312;53.502;10.030;2023-03-26T01:33:22;100511.13;;;7.31
77728;BMP280;68312;53.502;10.030;2023-03-26T01:36:12;100517.44;;;7.30
77728;BMP280;68312;53.502;10.030;2023-03-26T01:38:58;100516.47;;;7.26
77728;BMP280;68312;53.502;10.030;2023-03-26T01:42:01;100506.91;;;7.22
77728;BMP280;68312;53.502;10.030;2023-03-26T01:44:54;100515.97;;;7.24
77728;BMP280;68312;53.502;10.030;2023-03-26T01:47:27;100522.72;;;7.25
77728;BMP280;68312;53.502;10.030;2023-03-26T01:49:55;100511.22;;;7.26
77728;BMP280;68312;53.502;10.030;2023-03-26T01:52:22;100519.25;;;7.30
77728;BMP280;68312;53.502;10.030;2023-03-26T01:54:50;100526.13;;;7.26
77728;BMP280;68312;53.502;10.030;2023-03-26T01:57:42;100520.84;;;7.17
77728;BMP280;68312;53.502;10.030;2023-03-26T02:00:54;100520.53;;;7.19
77728;BMP280;68312;53.502;10.030;2023-03-26T02:03:52;100532.34;;;7.16
77728;BMP280;68312;53.502;10.030;2023-03-26T02:06:31;100522.88;;;7.20
77728;BMP280;68312;53.502;10.030;2023-03-26T02:09:12;100529.72;;;7.16
77728;BMP280;68312;53.502;10.030;2023-03-26T02:11:45;100527.13;;;7.16
77728;BMP280;68312;53.502;10.030;2023-03-26T02:14:13;100536.19;;;7.19
77728;BMP280;68312;53.502;10.030;2023-03-26T02:16:40;100523.97;;;7.28
77728;BMP280;68312;53.502;10.030;2023-03-26T02:19:10;100518.31;;;7.26
77728;BMP280;68312;53.502;10.030;2023-03-26T02:21:39;100514.75;;;7.22
77728;BMP280;68312;53.502;10.030;2023-03-26T02:24:06;100519.50;;;7.20
77728;BMP280;68312;53.502;10.030;2023-03-26T02:26:34;100517.16;;;7.18
77728;BMP280;68312;53.502;10.030;2023-03-26T02:29:01;100513.09;;;7.26
77728;BMP280;68312;53.502;10.030;2023-03-26T02:31:28;100515.97;;;7.24
77728;BMP280;68312;53.502;10.030;2023-03-26T02:33:54;100518.22;;;7.17
77728;BMP280;68312;53.502;10.030;2023-03-26T02:36:21;100520.84;;;7.17
77728;BMP280;68312;53.502;10.030;2023-03-26T02:38:55;100523.75;;;7.16
77728;BMP280;68312;53.502;10.030;2023-03-26T02:41:22;100527.22;;;7.12
77728;BMP280;68312;53.502;10.030;2023-03-26T02:43:48;100527.13;;;7.16
77728;BMP280;68312;53.502;10.030;2023-03-26T02:46:13;100524.16;;;7.10
77728;BMP280;68312;53.502;10.030;2023-03-26T02:48:39;100520.78;;;7.09
77728;BMP280;68312;53.502;10.030;2023-03-26T02:51:05;100518.25;;;7.04
77728;BMP280;68312;53.502;10.030;2023-03-26T02:53:31;100527.16;;;7.03
77728;BMP280;68312;53.502;10.030;2023-03-26T02:55:58;100523.28;;;7.01
77728;BMP280;68312;53.502;10.030;2023-03-26T02:58:26;100528.50;;;7.01
77728;BMP280;68312;53.502;10.030;2023-03-26T03:00:54;100529.09;;;6.98
77728;BMP280;68312;53.502;10.030;2023-03-26T03:03:24;100521.56;;;6.96
77728;BMP280;68312;53.502;10.030;2023-03-26T03:05:52;100521.44;;;7.01
77728;BMP280;68312;53.502;10.030;2023-03-26T03:08:20;100529.97;;;6.93
77728;BMP280;68312;53.502;10.030;2023-03-26T03:10:58;100527.06;;;6.95
77728;BMP280;68312;53.502;10.030;2023-03-26T03:13:28;100512.69;;;6.84
77728;BMP280;68312;53.502;10.030;2023-03-26T03:15:54;100521.94;;;6.77
77728;BMP280;68312;53.502;10.030;2023-03-26T03:18:20;100521.34;;;6.66
77728;BMP280;68312;53.502;10.030;2023-03-26T03:20:46;100519.81;;;6.65
77728;BMP280;68312;53.502;10.030;2023-03-26T03:23:12;100521.34;;;6.66
77728;BMP280;68312;53.502;10.030;2023-03-26T03:25:38;100527.56;;;6.57
77728;BMP280;68312;53.502;10.030;2023-03-26T03:28:05;100523.47;;;6.51
77728;BMP280;68312;53.502;10.030;2023-03-26T03:30:31;100530.06;;;6.49
77728;BMP280;68312;53.502;10.030;2023-03-26T03:32:57;100536.06;;;6.49
77728;BMP280;68312;53.502;10.030;2023-03-26T03:35:24;100528.31;;;6.44
77728;BMP280;68312;53.502;10.030;2023-03-26T03:37:51;100530.72;;;6.41
77728;BMP280;68312;53.502;10.030;2023-03-26T03:40:18;100528.88;;;6.41
77728;BMP280;68312;53.502;10.030;2023-03-26T03:42:44;100535.84;;;6.46
77728;BMP280;68312;53.502;10.030;2023-03-26T03:45:11;100541.91;;;6.41
77728;BMP280;68312;53.502;10.030;2023-03-26T03:47:37;100533.53;;;6.44
77728;BMP280;68312;53.502;10.030;2023-03-26T03:50:03;100527.56;;;6.44
77728;BMP280;68312;53.502;10.030;2023-03-26T03:52:31;100532.78;;;6.44
77728;BMP280;68312;53.502;10.030;2023-03-26T03:54:57;100535.38;;;6.44
77728;BMP280;68312;53.502;10.030;2023-03-26T03:57:25;100536.81;;;6.50
77728;BMP280;68312;53.502;10.030;2023-03-26T03:59:51;100539.75;;;6.48
77728;BMP280;68312;53.502;10.030;2023-03-26T04:02:17;100530.06;;;6.49
77728;BMP280;68312;53.502;10.030;2023-03-26T04:05:00;100520.00;;;6.55
77728;BMP280;68312;53.502;10.030;2023-03-26T04:07:28;100521.38;;;6.53
77728;BMP280;68312;53.502;10.030;2023-03-26T04:09:55;100525.03;;;6.52
77728;BMP280;68312;53.502;10.030;2023-03-26T04:12:28;100521.38;;;6.53
77728;BMP280;68312;53.502;10.030;2023-03-26T04:14:55;100515.38;;;6.52
77728;BMP280;68312;53.502;10.030;2023-03-26T04:17:21;100532.69;;;6.49
77728;BMP280;68312;53.502;10.030;2023-03-26T04:19:48;100526.97;;;6.47
77728;BMP280;68312;53.502;10.030;2023-03-26T04:22:17;100530.25;;;6.52
77728;BMP280;68312;53.502;10.030;2023-03-26T04:24:43;100521.09;;;6.54
77728;BMP280;68312;53.502;10.030;2023-03-26T04:27:15;100524.09;;;6.61
77728;BMP280;68312;53.502;10.030;2023-03-26T04:29:49;100515.06;;;6.54
77728;BMP280;68312;53.502;10.030;2023-03-26T04:32:24;100512.84;;;6.48
77728;BMP280;68312;53.502;10.030;2023-03-26T04:34:53;100509.84;;;6.41
77728;BMP280;68312;53.502;10.030;2023-03-26T04:37:26;100513.44;;;6.31
77728;BMP280;68312;53.502;10.030;2023-03-26T04:39:58;100501.66;;;6.21
77728;BMP280;68312;53.502;10.030;2023-03-26T04:42:26;100505.22;;;6.24
77728;BMP280;68312;53.502;10.030;2023-03-26T04:44:52;100513.22;;;6.15
77728;BMP280;68312;53.502;10.030;2023-03-26T04:47:18;100524.56;;;6.05
77728;BMP280;68312;53.502;10.030;2023-03-26T04:49:45;100522.03;;;6.00
77728;BMP280;68312;53.502;10.030;2023-03-26T04:52:12;100520.50;;;5.99
77728;BMP280;68312;53.502;10.030;2023-03-26T04:54:40;100511.72;;;5.95
77728;BMP280;68312;53.502;10.030;2023-03-26T04:59:47;100523.56;;;6.01
77728;BMP280;68312;53.502;10.030;2023-03-26T05:02:14;100513.88;;;6.07
77728;BMP280;68312;53.502;10.030;2023-03-26T05:04:39;100517.94;;;6.13
77728;BMP280;68312;53.502;10.030;2023-03-26T05:07:09;100511.47;;;6.10
77728;BMP280;68312;53.502;10.030;2023-03-26T05:09:40;100516.00;;;6.18
77728;BMP280;68312;53.502;10.030;2023-03-26T05:12:05;100516.72;;;6.23
77728;BMP280;68312;53.502;10.030;2023-03-26T05:14:31;100509.97;;;6.22
77728;BMP280;68312;53.502;10.030;2023-03-26T05:16:57;100520.94;;;6.20
77728;BMP280;68312;53.502;10.030;2023-03-26T05:19:22;100524.03;;;6.08
77728;BMP280;68312;53.502;10.030;2023-03-26T05:21:48;100523.53;;;6.06
77728;BMP280;68312;53.502;10.030;2023-03-26T05:24:13;100520.03;;;5.97
77728;BMP280;68312;53.502;10.030;2023-03-26T05:26:39;100523.28;;;5.89
77728;BMP280;68312;53.502;10.030;2023-03-26T05:29:05;100525.13;;;5.89
77728;BMP280;68312;53.502;10.030;2023-03-26T05:31:30;100532.81;;;5.81
77728;BMP280;68312;53.502;10.030;2023-03-26T05:33:57;100529.72;;;5.79
77728;BMP280;68312;53.502;10.030;2023-03-26T05:36:25;100531.25;;;5.80
77728;BMP280;68312;53.502;10.030;2023-03-26T05:38:52;100529.47;;;5.75
77728;BMP280;68312;53.502;10.030;2023-03-26T05:41:18;100527.16;;;5.74
77728;BMP280;68312;53.502;10.030;2023-03-26T05:43:43;100529.97;;;5.77
77728;BMP280;68312;53.502;10.030;2023-03-26T05:46:10;100533.84;;;5.80
77728;BMP280;68312;53.502;10.030;2023-03-26T05:48:36;100525.50;;;5.83
77728;BMP280;68312;53.502;10.030;2023-03-26T05:51:03;100538.28;;;5.97
77728;BMP280;68312;53.502;10.030;2023-03-26T05:53:30;100550.72;;;6.00
77728;BMP280;68312;53.502;10.030;2023-03-26T05:55:56;100543.88;;;6.04
77728;BMP280;68312;53.502;10.030;2023-03-26T05:58:27;100541.00;;;6.06
77728;BMP280;68312;53.502;10.030;2023-03-26T06:01:06;100546.41;;;6.09
77728;BMP280;68312;53.502;10.030;2023-03-26T06:03:37;100539.28;;;6.15
77728;BMP280;68312;53.502;10.030;2023-03-26T06:06:10;100552.59;;;6.13
77728;BMP280;68312;53.502;10.030;2023-03-26T06:08:42;100549.22;;;6.13
77728;BMP280;68312;53.502;10.030;2023-03-26T06:11:13;100554.16;;;6.14
77728;BMP280;68312;53.502;10.030;2023-03-26T06:13:41;100560.13;;;6.15
77728;BMP280;68312;53.502;10.030;2023-03-26T06:16:11;100560.31;;;6.18
77728;BMP280;68312;53.502;10.030;2023-03-26T06:18:38;100553.78;;;6.21
77728;BMP280;68312;53.502;10.030;2023-03-26T06:21:05;100549.06;;;6.22
77728;BMP280;68312;53.502;10.030;2023-03-26T06:23:32;100554.16;;;6.27
77728;BMP280;68312;53.502;10.030;2023-03-26T06:25:58;100551.28;;;6.29
77728;BMP280;68312;53.502;10.030;2023-03-26T06:28:24;100553.69;;;6.39
77728;BMP280;68312;53.502;10.030;2023-03-26T06:30:50;100541.16;;;6.41
77728;BMP280;68312;53.502;10.030;2023-03-26T06:33:16;100540.28;;;6.45
77728;BMP280;68312;53.502;10.030;2023-03-26T06:35:43;100552.19;;;6.51
77728;BMP280;68312;53.502;10.030;2023-03-26T06:38:10;100543.88;;;6.62
77728;BMP280;68312;53.502;10.030;2023-03-26T06:40:36;100542.34;;;6.61
77728;BMP280;68312;53.502;10.030;2023-03-26T06:43:02;100556.34;;;6.65
77728;BMP280;68312;53.502;10.030;2023-03-26T06:45:28;100548.91;;;6.72
77728;BMP280;68312;53.502;10.030;2023-03-26T06:47:56;100563.41;;;6.78
77728;BMP280;68312;53.502;10.030;2023-03-26T06:50:21;100558.59;;;6.85
77728;BMP280;68312;53.502;10.030;2023-03-26T06:52:47;100550.56;;;6.95
77728;BMP280;68312;53.502;10.030;2023-03-26T06:55:14;100560.03;;;6.91
77728;BMP280;68312;53.502;10.030;2023-03-26T06:57:40;100564.16;;;6.92
77728;BMP280;68312;53.502;10.030;2023-03-26T07:00:09;100566.09;;;7.00
77728;BMP280;68312;53.502;10.030;2023-03-26T07:02:36;100562.13;;;7.02
77728;BMP280;68312;53.502;10.030;2023-03-26T07:05:02;100558.38;;;7.08
77728;BMP280;68312;53.502;10.030;2023-03-26T07:07:28;100570.75;;;7.16
77728;BMP280;68312;53.502;10.030;2023-03-26T07:09:53;100572.38;;;7.12
77728;BMP280;68312;53.502;10.030;2023-03-26T07:12:19;100571.16;;;7.10
77728;BMP280;68312;53.502;10.030;2023-03-26T07:14:44;100563.94;;;7.15
77728;BMP280;68312;53.502;10.030;2023-03-26T07:17:10;100569.19;;;7.15
77728;BMP280;68312;53.502;10.030;2023-03-26T07:19:35;100565.03;;;7.14
77728;BMP280;68312;53.502;10.030;2023-03-26T07:22:01;100550.31;;;7.31
77728;BMP280;68312;53.502;10.030;2023-03-26T07:24:27;100546.03;;;7.35
77728;BMP280;68312;53.502;10.030;2023-03-26T07:27:34;100554.00;;;7.30
77728;BMP280;68312;53.502;10.030;2023-03-26T07:30:17;100563.97;;;7.28
77728;BMP280;68312;53.502;10.030;2023-03-26T07:33:30;100551.47;;;7.25
77728;BMP280;68312;53.502;10.030;2023-03-26T07:36:20;100554.28;;;7.29
77728;BMP280;68312;53.502;10.030;2023-03-26T07:39:14;100552.16;;;7.31
77728;BMP280;68312;53.502;10.030;2023-03-26T07:45:44;100551.47;;;7.25
77728;BMP280;68312;53.502;10.030;2023-03-26T07:48:21;100555.47;;;7.10
77728;BMP280;68312;53.502;10.030;2023-03-26T07:50:52;100563.19;;;7.14
77728;BMP280;68312;53.502;10.030;2023-03-26T07:53:19;100551.75;;;7.11
77728;BMP280;68312;53.502;10.030;2023-03-26T07:55:58;100560.00;;;7.17
77728;BMP280;68312;53.502;10.030;2023-03-26T07:59:14;100556.31;;;7.18
77728;BMP280;68312;53.502;10.030;2023-03-26T08:14:33;100553.75;;;7.53
77728;BMP280;68312;53.502;10.030;2023-03-26T08:20:30;100547.59;;;7.58
77728;BMP280;68312;53.502;10.030;2023-03-26T08:23:16;100562.03;;;7.55
77728;BMP280;68312;53.502;10.030;2023-03-26T08:26:45;100558.69;;;7.42
77728;BMP280;68312;53.502;10.030;2023-03-26T08:29:32;100555.72;;;7.35
77728;BMP280;68312;53.502;10.030;2023-03-26T08:32:19;100557.44;;;7.39
77728;BMP280;68312;53.502;10.030;2023-03-26T08:34:45;100561.38;;;7.50
77728;BMP280;68312;53.502;10.030;2023-03-26T08:37:12;100566.81;;;7.40
77728;BMP280;68312;53.502;10.030;2023-03-26T08:39:38;100558.50;;;7.38
77728;BMP280;68312;53.502;10.030;2023-03-26T08:52:04;100562.41;;;7.84
77728;BMP280;68312;53.502;10.030;2023-03-26T09:15:23;100549.06;;;9.34
77728;BMP280;68312;53.502;10.030;2023-03-26T09:28:22;100538.13;;;11.36
77728;BMP280;68312;53.502;10.030;2023-03-26T09:34:31;100555.13;;;10.05
77728;BMP280;68312;53.502;10.030;2023-03-26T09:40:25;100555.69;;;9.40
77728;BMP280;68312;53.502;10.030;2023-03-26T09:43:19;100556.34;;;9.45
77728;BMP280;68312;53.502;10.030;2023-03-26T09:46:59;100560.13;;;8.97
77728;BMP280;68312;53.502;10.030;2023-03-26T09:50:00;100581.34;;;8.88
77728;BMP280;68312;53.502;10.030;2023-03-26T09:56:51;100559.13;;;13.94
77728;BMP280;68312;53.502;10.030;2023-03-26T10:02:37;100557.78;;;13.43
77728;BMP280;68312;53.502;10.030;2023-03-26T10:05:42;100554.91;;;11.44
77728;BMP280;68312;53.502;10.030;2023-03-26T10:12:35;100566.84;;;13.72
77728;BMP280;68312;53.502;10.030;2023-03-26T10:15:20;100558.19;;;13.72
77728;BMP280;68312;53.502;10.030;2023-03-26T10:20:57;100563.28;;;11.58
77728;BMP280;68312;53.502;10.030;2023-03-26T10:30:22;100563.28;;;11.05
77728;BMP280;68312;53.502;10.030;2023-03-26T10:33:17;100568.16;;;10.95
77728;BMP280;68312;53.502;10.030;2023-03-26T10:36:36;100569.31;;;10.77
77728;BMP280;68312;53.502;10.030;2023-03-26T10:42:34;100574.16;;;9.93
77728;BMP280;68312;53.502;10.030;2023-03-26T10:52:29;100548.72;;;13.86
77728;BMP280;68312;53.502;10.030;2023-03-26T10:55:50;100548.50;;;14.06
77728;BMP280;68312;53.502;10.030;2023-03-26T11:00:54;100548.59;;;13.37
77728;BMP280;68312;53.502;10.030;2023-03-26T11:03:48;100552.97;;;13.18
77728;BMP280;68312;53.502;10.030;2023-03-26T11:06:41;100550.97;;;13.84
77728;BMP280;68312;53.502;10.030;2023-03-26T11:09:40;100555.72;;;14.24
77728;BMP280;68312;53.502;10.030;2023-03-26T11:12:33;100543.63;;;15.54
77728;BMP280;68312;53.502;10.030;2023-03-26T11:15:36;100547.19;;;15.02
77728;BMP280;68312;53.502;10.030;2023-03-26T11:18:26;100538.28;;;15.98
77728;BMP280;68312;53.502;10.030;2023-03-26T11:21:29;100544.25;;;15.07
77728;BMP280;68312;53.502;10.030;2023-03-26T11:33:16;100544.03;;;13.64
77728;BMP280;68312;53.502;10.030;2023-03-26T11:35:50;100530.94;;;14.14
77728;BMP280;68312;53.502;10.030;2023-03-26T11:38:29;100544.25;;;14.20
77728;BMP280;68312;53.502;10.030;2023-03-26T11:41:11;100546.16;;;13.32
77728;BMP280;68312;53.502;10.030;2023-03-26T11:43:45;100542.00;;;13.73
77728;BMP280;68312;53.502;10.030;2023-03-26T11:46:20;100536.72;;;14.19
77728;BMP280;68312;53.502;10.030;2023-03-26T11:48:54;100536.19;;;13.53
77728;BMP280;68312;53.502;10.030;2023-03-26T11:51:33;100542.69;;;13.28
77728;BMP280;68312;53.502;10.030;2023-03-26T11:54:04;100535.44;;;14.13
77728;BMP280;68312;53.502;10.030;2023-03-26T11:56:54;100529.91;;;14.52
77728;BMP280;68312;53.502;10.030;2023-03-26T11:59:29;100527.31;;;14.55
77728;BMP280;68312;53.502;10.030;2023-03-26T12:04:40;100521.22;;;15.48
77728;BMP280;68312;53.502;10.030;2023-03-26T12:07:21;100524.72;;;15.11
77728;BMP280;68312;53.502;10.030;2023-03-26T12:10:00;100513.53;;;15.21
77728;BMP280;68312;53.502;10.030;2023-03-26T12:12:35;100512.44;;;15.03
77728;BMP280;68312;53.502;10.030;2023-03-26T12:15:15;100522.13;;;14.25
77728;BMP280;68312;53.502;10.030;2023-03-26T12:17:45;100532.72;;;13.94
77728;BMP280;68312;53.502;10.030;2023-03-26T12:22:50;100524.50;;;14.64
77728;BMP280;68312;53.502;10.030;2023-03-26T12:25:32;100519.22;;;15.01
77728;BMP280;68312;53.502;10.030;2023-03-26T12:31:02;100514.03;;;14.70
77728;BMP280;68312;53.502;10.030;2023-03-26T12:33:33;100512.63;;;15.32
77728;BMP280;68312;53.502;10.030;2023-03-26T12:36:16;100518.38;;;14.97
77728;BMP280;68312;53.502;10.030;2023-03-26T12:38:51;100522.41;;;14.72
77728;BMP280;68312;53.502;10.030;2023-03-26T12:41:20;100510.69;;;15.11
77728;BMP280;68312;53.502;10.030;2023-03-26T12:44:33;100521.13;;;14.67
77728;BMP280;68312;53.502;10.030;2023-03-26T12:47:20;100529.06;;;12.60
77728;BMP280;68312;53.502;10.030;2023-03-26T12:49:57;100528.28;;;12.72
77728;BMP280;68312;53.502;10.030;2023-03-26T12:59:37;100523.91;;;15.52
77728;BMP280;68312;53.502;10.030;2023-03-26T13:35:04;100501.19;;;16.24
77728;BMP280;68312;53.502;10.030;2023-03-26T13:37:55;100493.03;;;16.35
77728;BMP280;68312;53.502;10.030;2023-03-26T13:47:02;100495.50;;;16.22
77728;BMP280;68312;53.502;10.030;2023-03-26T13:53:05;100494.19;;;14.98
77728;BMP280;68312;53.502;10.030;2023-03-26T13:55:46;100507.00;;;14.07
77728;BMP280;68312;53.502;10.030;2023-03-26T13:58:45;100508.06;;;13.30
77728;BMP280;68312;53.502;10.030;2023-03-26T14:01:52;100507.13;;;12.33
77728;BMP280;68312;53.502;10.030;2023-03-26T14:04:29;100514.31;;;13.37
77728;BMP280;68312;53.502;10.030;2023-03-26T14:07:26;100497.59;;;14.09
77728;BMP280;68312;53.502;10.030;2023-03-26T14:10:22;100509.25;;;13.89
77728;BMP280;68312;53.502;10.030;2023-03-26T14:12:59;100513.00;;;14.22
77728;BMP280;68312;53.502;10.030;2023-03-26T14:15:56;100509.72;;;15.19
77728;BMP280;68312;53.502;10.030;2023-03-26T14:18:37;100504.69;;;15.32
77728;BMP280;68312;53.502;10.030;2023-03-26T14:21:19;100513.38;;;14.73
77728;BMP280;68312;53.502;10.030;2023-03-26T14:24:57;100507.78;;;15.38
77728;BMP280;68312;53.502;10.030;2023-03-26T14:28:18;100504.25;;;15.52
77728;BMP280;68312;53.502;10.030;2023-03-26T14:31:38;100507.00;;;13.31
77728;BMP280;68312;53.502;10.030;2023-03-26T14:34:31;100512.13;;;13.00
77728;BMP280;68312;53.502;10.030;2023-03-26T14:47:00;100521.16;;;13.68
77728;BMP280;68312;53.502;10.030;2023-03-26T14:53:31;100529.41;;;12.47
77728;BMP280;68312;53.502;10.030;2023-03-26T14:56:09;100526.63;;;11.85
77728;BMP280;68312;53.502;10.030;2023-03-26T15:03:01;100534.63;;;11.32
77728;BMP280;68312;53.502;10.030;2023-03-26T15:06:18;100529.81;;;11.66
77728;BMP280;68312;53.502;10.030;2023-03-26T15:14:00;100528.06;;;11.70
77728;BMP280;68312;53.502;10.030;2023-03-26T15:40:22;100541.13;;;10.38
77728;BMP280;68312;53.502;10.030;2023-03-26T15:43:14;100551.09;;;10.15
77728;BMP280;68312;53.502;10.030;2023-03-26T15:46:06;100543.47;;;10.31
77728;BMP280;68312;53.502;10.030;2023-03-26T16:01:14;100546.59;;;10.53
77728;BMP280;68312;53.502;10.030;2023-03-26T16:06:59;100555.72;;;10.18
77728;BMP280;68312;53.502;10.030;2023-03-26T16:12:54;100560.63;;;9.75
77728;BMP280;68312;53.502;10.030;2023-03-26T16:21:45;100564.66;;;9.22
77728;BMP280;68312;53.502;10.030;2023-03-26T16:24:32;100568.31;;;9.29
77728;BMP280;68312;53.502;10.030;2023-03-26T16:30:06;100568.63;;;9.20
77728;BMP280;68312;53.502;10.030;2023-03-26T16:32:55;100570.16;;;9.12
77728;BMP280;68312;53.502;10.030;2023-03-26T16:35:52;100574.63;;;9.03
77728;BMP280;68312;53.502;10.030;2023-03-26T16:41:54;100582.59;;;8.90
77728;BMP280;68312;53.502;10.030;2023-03-26T16:44:37;100581.25;;;8.93
77728;BMP280;68312;53.502;10.030;2023-03-26T16:47:29;100583.66;;;8.81
77728;BMP280;68312;53.502;10.030;2023-03-26T16:50:16;100586.38;;;8.67
77728;BMP280;68312;53.502;10.030;2023-03-26T16:53:08;100594.78;;;8.56
77728;BMP280;68312;53.502;10.030;2023-03-26T16:55:57;100595.69;;;8.43
77728;BMP280;68312;53.502;10.030;2023-03-26T17:01:33;100611.94;;;8.32
77728;BMP280;68312;53.502;10.030;2023-03-26T17:04:19;100613.91;;;8.27
77728;BMP280;68312;53.502;10.030;2023-03-26T17:13:15;100620.63;;;8.19
77728;BMP280;68312;53.502;10.030;2023-03-26T17:16:17;100624.72;;;8.12
77728;BMP280;68312;53.502;10.030;2023-03-26T17:19:15;100618.97;;;8.02
77728;BMP280;68312;53.502;10.030;2023-03-26T17:22:04;100624.63;;;7.95
77728;BMP280;68312;53.502;10.030;2023-03-26T17:24:59;100630.16;;;7.94
77728;BMP280;68312;53.502;10.030;2023-03-26T17:28:37;100629.94;;;7.90
77728;BMP280;68312;53.502;10.030;2023-03-26T17:31:42;100631.31;;;7.88
77728;BMP280;68312;53.502;10.030;2023-03-26T17:34:37;100638.72;;;7.86
77728;BMP280;68312;53.502;10.030;2023-03-26T17:45:17;100655.38;;;7.76
77728;BMP280;68312;53.502;10.030;2023-03-26T17:47:51;100662.56;;;7.71
77728;BMP280;68312;53.502;10.030;2023-03-26T17:50:32;100665.81;;;7.76
77728;BMP280;68312;53.502;10.030;2023-03-26T17:53:29;100670.75;;;7.78
77728;BMP280;68312;53.502;10.030;2023-03-26T17:56:11;100670.59;;;7.75
77728;BMP280;68312;53.502;10.030;2023-03-26T17:58:44;100668.44;;;7.76
77728;BMP280;68312;53.502;10.030;2023-03-26T18:01:30;100681.06;;;7.75
77728;BMP280;68312;53.502;10.030;2023-03-26T18:04:14;100677.06;;;7.77
77728;BMP280;68312;53.502;10.030;2023-03-26T18:07:09;100688.19;;;7.69
77728;BMP280;68312;53.502;10.030;2023-03-26T18:16:59;100707.97;;;7.48
77728;BMP280;68312;53.502;10.030;2023-03-26T18:19:26;100705.00;;;7.42
77728;BMP280;68312;53.502;10.030;2023-03-26T18:21:58;100707.31;;;7.43
77728;BMP280;68312;53.502;10.030;2023-03-26T18:24:31;100708.97;;;7.39
77728;BMP280;68312;53.502;10.030;2023-03-26T18:27:09;100719.59;;;7.29
77728;BMP280;68312;53.502;10.030;2023-03-26T18:29:45;100724.31;;;7.27
77728;BMP280;68312;53.502;10.030;2023-03-26T18:32:25;100726.06;;;7.18
77728;BMP280;68312;53.502;10.030;2023-03-26T18:35:16;100730.31;;;7.14
77728;BMP280;68312;53.502;10.030;2023-03-26T18:37:46;100737.53;;;7.04
77728;BMP280;68312;53.502;10.030;2023-03-26T18:40:23;100738.69;;;6.98
77728;BMP280;68312;53.502;10.030;2023-03-26T18:42:56;100744.59;;;6.90
77728;BMP280;68312;53.502;10.030;2023-03-26T18:45:25;100744.22;;;6.97
77728;BMP280;68312;53.502;10.030;2023-03-26T18:48:00;100747.69;;;6.92
77728;BMP280;68312;53.502;10.030;2023-03-26T18:50:36;100749.50;;;6.92
77728;BMP280;68312;53.502;10.030;2023-03-26T18:53:14;100753.84;;;6.83
77728;BMP280;68312;53.502;10.030;2023-03-26T18:55:46;100753.53;;;6.71
77728;BMP280;68312;53.502;10.030;2023-03-26T19:01:03;100759.66;;;6.62
77728;BMP280;68312;53.502;10.030;2023-03-26T19:03:38;100765.28;;;6.69
77728;BMP280;68312;53.502;10.030;2023-03-26T19:06:10;100772.13;;;6.65
77728;BMP280;68312;53.502;10.030;2023-03-26T19:08:42;100768.72;;;6.64
77728;BMP280;68312;53.502;10.030;2023-03-26T19:11:10;100769.53;;;6.65
77728;BMP280;68312;53.502;10.030;2023-03-26T19:13:40;100773.94;;;6.64
77728;BMP280;68312;53.502;10.030;2023-03-26T19:16:35;100783.72;;;6.59
77728;BMP280;68312;53.502;10.030;2023-03-26T19:19:07;100779.13;;;6.51
77728;BMP280;68312;53.502;10.030;2023-03-26T19:21:38;100785.28;;;6.42
77728;BMP280;68312;53.502;10.030;2023-03-26T19:24:05;100786.41;;;6.36
77728;BMP280;68312;53.502;10.030;2023-03-26T19:26:32;100785.19;;;6.28
77728;BMP280;68312;53.502;10.030;2023-03-26T19:29:00;100785.03;;;6.20
77728;BMP280;68312;53.502;10.030;2023-03-26T19:31:35;100790.56;;;6.19